Airport ICAO


07:29 UTC

10°C

Broken clouds


An affordable passengers' Moving Map for your aircraft. Made for the iPad and the iPhone
More information here

LFLS Saint Geoirs


Grenoble FRANCE   VFR


METAR LFLS 200700Z AUTO VRB03KT 9999 BKN012 10/07 Q1023 TEMPO 0400 FG VV/// 0h29min

TAF LFLS 200200Z 2003/2103 VRB03KT 9999 BKN012 TEMPO 2003/2008 3000 BR OVC006 PROB40 TEMPO 2003/2008 0400 FG VV/// FM200900 36008KT 9999 BKN020 BECMG 2011/2013 CAVOK BECMG 2017/2019 VRB02KT PROB40 TEMPO 2100/2103 0400 FG VV/// 5h29min





NOTAMS

OPEN